sensor_id;sensor_type;location;lat;lon;timestamp;pressure;altitude;pressure_sealevel;temperature;humidity
24666;BME280;29726;53.532;-1.478;2022-12-29T00:02:12;97180.88;;;12.50;100.00
24666;BME280;29726;53.532;-1.478;2022-12-29T00:04:38;97193.19;;;12.54;100.00
24666;BME280;29726;53.532;-1.478;2022-12-29T00:07:04;97153.31;;;12.31;100.00
24666;BME280;29726;53.532;-1.478;2022-12-29T00:09:30;97203.63;;;12.61;100.00
24666;BME280;29726;53.532;-1.478;2022-12-29T00:11:56;97198.19;;;12.56;100.00
24666;BME280;29726;53.532;-1.478;2022-12-29T00:14:22;97177.88;;;12.55;100.00
24666;BME280;29726;53.532;-1.478;2022-12-29T00:17:06;97163.50;;;12.59;100.00
24666;BME280;29726;53.532;-1.478;2022-12-29T00:19:31;97170.97;;;12.56;100.00
24666;BME280;29726;53.532;-1.478;2022-12-29T00:22:15;97159.97;;;12.51;100.00
24666;BME280;29726;53.532;-1.478;2022-12-29T00:24:59;97140.75;;;12.55;100.00
24666;BME280;29726;53.532;-1.478;2022-12-29T00:27:26;97167.63;;;12.58;100.00
24666;BME280;29726;53.532;-1.478;2022-12-29T00:30:12;97163.31;;;12.49;100.00
24666;BME280;29726;53.532;-1.478;2022-12-29T00:32:57;97165.22;;;12.47;100.00
24666;BME280;29726;53.532;-1.478;2022-12-29T00:36:15;97173.78;;;12.56;100.00
24666;BME280;29726;53.532;-1.478;2022-12-29T00:38:46;97173.97;;;12.51;100.00
24666;BME280;29726;53.532;-1.478;2022-12-29T00:41:30;97187.94;;;12.51;100.00
24666;BME280;29726;53.532;-1.478;2022-12-29T00:44:14;97213.50;;;12.47;100.00
24666;BME280;29726;53.532;-1.478;2022-12-29T00:46:41;97218.16;;;12.52;100.00
24666;BME280;29726;53.532;-1.478;2022-12-29T00:49:09;97220.94;;;12.52;100.00
24666;BME280;29726;53.532;-1.478;2022-12-29T00:51:55;97225.81;;;12.52;100.00
24666;BME280;29726;53.532;-1.478;2022-12-29T00:54:21;97242.59;;;12.52;100.00
24666;BME280;29726;53.532;-1.478;2022-12-29T00:56:47;97234.19;;;12.44;100.00
24666;BME280;29726;53.532;-1.478;2022-12-29T00:59:13;97250.25;;;12.44;100.00
24666;BME280;29726;53.532;-1.478;2022-12-29T01:01:39;97237.19;;;12.46;100.00
24666;BME280;29726;53.532;-1.478;2022-12-29T01:04:05;97255.63;;;12.49;100.00
24666;BME280;29726;53.532;-1.478;2022-12-29T01:06:32;97249.84;;;12.47;100.00
24666;BME280;29726;53.532;-1.478;2022-12-29T01:08:58;97271.50;;;12.47;100.00
24666;BME280;29726;53.532;-1.478;2022-12-29T01:11:42;97284.72;;;12.46;100.00
24666;BME280;29726;53.532;-1.478;2022-12-29T01:14:07;97267.56;;;12.35;100.00
24666;BME280;29726;53.532;-1.478;2022-12-29T01:16:33;97291.09;;;12.47;100.00
24666;BME280;29726;53.532;-1.478;2022-12-29T01:18:59;97311.97;;;12.46;100.00
24666;BME280;29726;53.532;-1.478;2022-12-29T01:21:24;97299.47;;;12.47;100.00
24666;BME280;29726;53.532;-1.478;2022-12-29T01:23:50;97287.53;;;12.39;100.00
24666;BME280;29726;53.532;-1.478;2022-12-29T01:26:16;97316.63;;;12.43;100.00
24666;BME280;29726;53.532;-1.478;2022-12-29T01:28:43;97307.50;;;12.43;100.00
24666;BME280;29726;53.532;-1.478;2022-12-29T01:31:09;97292.56;;;12.40;100.00
24666;BME280;29726;53.532;-1.478;2022-12-29T01:33:35;97300.94;;;12.33;100.00
24666;BME280;29726;53.532;-1.478;2022-12-29T01:36:06;97320.19;;;12.44;100.00
24666;BME280;29726;53.532;-1.478;2022-12-29T01:38:32;97333.41;;;12.43;100.00
24666;BME280;29726;53.532;-1.478;2022-12-29T01:40:58;97340.28;;;12.35;100.00
24666;BME280;29726;53.532;-1.478;2022-12-29T01:43:50;97357.84;;;12.43;100.00
24666;BME280;29726;53.532;-1.478;2022-12-29T01:46:35;97360.66;;;12.43;100.00
24666;BME280;29726;53.532;-1.478;2022-12-29T01:49:15;97361.94;;;12.42;100.00
24666;BME280;29726;53.532;-1.478;2022-12-29T01:51:48;97366.03;;;12.41;100.00
24666;BME280;29726;53.532;-1.478;2022-12-29T01:56:52;97397.56;;;12.41;100.00
24666;BME280;29726;53.532;-1.478;2022-12-29T01:59:22;97388.22;;;12.39;100.00
24666;BME280;29726;53.532;-1.478;2022-12-29T02:01:50;97388.00;;;12.37;100.00
24666;BME280;29726;53.532;-1.478;2022-12-29T02:04:16;97389.31;;;12.36;100.00
24666;BME280;29726;53.532;-1.478;2022-12-29T02:06:46;97383.53;;;12.34;100.00
24666;BME280;29726;53.532;-1.478;2022-12-29T02:09:13;97379.59;;;12.29;100.00
24666;BME280;29726;53.532;-1.478;2022-12-29T02:11:39;97384.66;;;12.31;100.00
24666;BME280;29726;53.532;-1.478;2022-12-29T02:14:12;97391.94;;;12.34;100.00
24666;BME280;29726;53.532;-1.478;2022-12-29T02:19:54;97395.66;;;12.29;100.00
24666;BME280;29726;53.532;-1.478;2022-12-29T02:22:48;97391.53;;;12.30;100.00
24666;BME280;29726;53.532;-1.478;2022-12-29T02:28:51;97369.50;;;12.11;100.00
24666;BME280;29726;53.532;-1.478;2022-12-29T02:31:20;97391.91;;;12.26;100.00
24666;BME280;29726;53.532;-1.478;2022-12-29T02:36:55;97375.09;;;12.11;100.00
24666;BME280;29726;53.532;-1.478;2022-12-29T02:39:40;97379.19;;;12.18;100.00
24666;BME280;29726;53.532;-1.478;2022-12-29T02:42:24;97382.94;;;12.20;100.00
24666;BME280;29726;53.532;-1.478;2022-12-29T02:53:48;97395.53;;;12.06;100.00
24666;BME280;29726;53.532;-1.478;2022-12-29T02:56:32;97388.25;;;12.03;100.00
24666;BME280;29726;53.532;-1.478;2022-12-29T02:58:58;97404.31;;;12.03;100.00
24666;BME280;29726;53.532;-1.478;2022-12-29T03:09:54;97425.19;;;12.02;100.00
24666;BME280;29726;53.532;-1.478;2022-12-29T03:15:20;97417.13;;;11.98;100.00
24666;BME280;29726;53.532;-1.478;2022-12-29T03:18:14;97423.69;;;12.01;100.00
24666;BME280;29726;53.532;-1.478;2022-12-29T03:21:03;97423.44;;;11.91;100.00
24666;BME280;29726;53.532;-1.478;2022-12-29T03:23:30;97424.59;;;11.96;100.00
24666;BME280;29726;53.532;-1.478;2022-12-29T03:26:01;97435.22;;;11.97;100.00
24666;BME280;29726;53.532;-1.478;2022-12-29T03:28:32;97419.09;;;11.83;100.00
24666;BME280;29726;53.532;-1.478;2022-12-29T03:31:01;97431.06;;;11.83;100.00
24666;BME280;29726;53.532;-1.478;2022-12-29T03:33:29;97447.84;;;11.91;100.00
24666;BME280;29726;53.532;-1.478;2022-12-29T03:36:00;97463.72;;;11.96;100.00
24666;BME280;29726;53.532;-1.478;2022-12-29T03:38:39;97454.34;;;11.86;100.00
24666;BME280;29726;53.532;-1.478;2022-12-29T03:41:11;97462.78;;;11.93;100.00
24666;BME280;29726;53.532;-1.478;2022-12-29T03:43:38;97475.97;;;11.93;100.00
24666;BME280;29726;53.532;-1.478;2022-12-29T03:46:03;97467.38;;;11.83;100.00
24666;BME280;29726;53.532;-1.478;2022-12-29T03:48:28;97481.75;;;11.87;100.00
24666;BME280;29726;53.532;-1.478;2022-12-29T03:50:54;97478.19;;;11.87;100.00
24666;BME280;29726;53.532;-1.478;2022-12-29T03:53:19;97485.47;;;11.90;100.00
24666;BME280;29726;53.532;-1.478;2022-12-29T03:55:45;97491.06;;;11.90;100.00
24666;BME280;29726;53.532;-1.478;2022-12-29T03:58:10;97487.66;;;11.84;100.00
24666;BME280;29726;53.532;-1.478;2022-12-29T04:00:36;97486.72;;;11.81;100.00
24666;BME280;29726;53.532;-1.478;2022-12-29T04:03:01;97494.22;;;11.86;100.00
24666;BME280;29726;53.532;-1.478;2022-12-29T04:05:26;97497.34;;;11.83;100.00
24666;BME280;29726;53.532;-1.478;2022-12-29T04:07:52;97503.91;;;11.85;100.00
24666;BME280;29726;53.532;-1.478;2022-12-29T04:10:17;97499.25;;;11.88;100.00
24666;BME280;29726;53.532;-1.478;2022-12-29T04:12:43;97501.66;;;11.84;100.00
24666;BME280;29726;53.532;-1.478;2022-12-29T04:15:10;97508.34;;;11.81;100.00
24666;BME280;29726;53.532;-1.478;2022-12-29T04:17:36;97507.22;;;11.84;100.00
24666;BME280;29726;53.532;-1.478;2022-12-29T04:20:01;97469.72;;;11.52;100.00
24666;BME280;29726;53.532;-1.478;2022-12-29T04:22:47;97524.53;;;11.82;100.00
24666;BME280;29726;53.532;-1.478;2022-12-29T04:25:12;97527.34;;;11.82;100.00
24666;BME280;29726;53.532;-1.478;2022-12-29T04:27:37;97532.31;;;11.76;100.00
24666;BME280;29726;53.532;-1.478;2022-12-29T04:30:03;97546.69;;;11.80;100.00
24666;BME280;29726;53.532;-1.478;2022-12-29T04:32:29;97548.97;;;11.82;100.00
24666;BME280;29726;53.532;-1.478;2022-12-29T04:34:54;97551.09;;;11.68;100.00
24666;BME280;29726;53.532;-1.478;2022-12-29T04:37:19;97557.84;;;11.73;100.00
24666;BME280;29726;53.532;-1.478;2022-12-29T04:39:45;97572.22;;;11.77;100.00
24666;BME280;29726;53.532;-1.478;2022-12-29T04:42:10;97575.94;;;11.79;100.00
24666;BME280;29726;53.532;-1.478;2022-12-29T04:44:35;97565.31;;;11.78;100.00
24666;BME280;29726;53.532;-1.478;2022-12-29T04:47:01;97579.28;;;11.78;100.00
24666;BME280;29726;53.532;-1.478;2022-12-29T04:49:26;97588.00;;;11.74;100.00
24666;BME280;29726;53.532;-1.478;2022-12-29T04:51:51;97601.84;;;11.80;100.00
24666;BME280;29726;53.532;-1.478;2022-12-29T04:54:17;97604.44;;;11.78;100.00
24666;BME280;29726;53.532;-1.478;2022-12-29T04:56:42;97591.91;;;11.71;100.00
24666;BME280;29726;53.532;-1.478;2022-12-29T04:59:07;97609.84;;;11.76;100.00
24666;BME280;29726;53.532;-1.478;2022-12-29T05:01:33;97578.78;;;11.46;100.00
24666;BME280;29726;53.532;-1.478;2022-12-29T05:03:58;97589.94;;;11.46;100.00
24666;BME280;29726;53.532;-1.478;2022-12-29T05:06:23;97622.63;;;11.71;100.00
24666;BME280;29726;53.532;-1.478;2022-12-29T05:08:49;97629.31;;;11.68;100.00
24666;BME280;29726;53.532;-1.478;2022-12-29T05:11:14;97629.66;;;11.65;100.00
24666;BME280;29726;53.532;-1.478;2022-12-29T05:13:40;97626.53;;;11.68;100.00
24666;BME280;29726;53.532;-1.478;2022-12-29T05:16:05;97620.38;;;11.70;100.00
24666;BME280;29726;53.532;-1.478;2022-12-29T05:18:31;97634.56;;;11.72;100.00
24666;BME280;29726;53.532;-1.478;2022-12-29T05:20:56;97632.84;;;11.69;100.00
24666;BME280;29726;53.532;-1.478;2022-12-29T05:23:21;97621.88;;;11.71;100.00
24666;BME280;29726;53.532;-1.478;2022-12-29T05:25:47;97628.91;;;11.64;100.00
24666;BME280;29726;53.532;-1.478;2022-12-29T05:28:13;97643.81;;;11.67;100.00
24666;BME280;29726;53.532;-1.478;2022-12-29T05:30:38;97648.66;;;11.66;100.00
24666;BME280;29726;53.532;-1.478;2022-12-29T05:33:04;97655.47;;;11.58;100.00
24666;BME280;29726;53.532;-1.478;2022-12-29T05:35:31;97650.09;;;11.60;100.00
24666;BME280;29726;53.532;-1.478;2022-12-29T05:37:57;97671.22;;;11.68;100.00
24666;BME280;29726;53.532;-1.478;2022-12-29T05:40:22;97663.66;;;11.56;100.00
24666;BME280;29726;53.532;-1.478;2022-12-29T05:42:48;97699.38;;;11.70;100.00
24666;BME280;29726;53.532;-1.478;2022-12-29T05:45:13;97690.56;;;11.66;100.00
24666;BME280;29726;53.532;-1.478;2022-12-29T05:47:38;97685.44;;;11.57;100.00
24666;BME280;29726;53.532;-1.478;2022-12-29T05:50:04;97723.03;;;11.69;100.00
24666;BME280;29726;53.532;-1.478;2022-12-29T05:52:30;97700.38;;;11.60;100.00
24666;BME280;29726;53.532;-1.478;2022-12-29T05:54:56;97720.53;;;11.66;100.00
24666;BME280;29726;53.532;-1.478;2022-12-29T05:57:22;97714.34;;;11.60;100.00
24666;BME280;29726;53.532;-1.478;2022-12-29T05:59:47;97728.19;;;11.65;100.00
24666;BME280;29726;53.532;-1.478;2022-12-29T06:02:13;97732.81;;;11.63;100.00
24666;BME280;29726;53.532;-1.478;2022-12-29T06:04:38;97762.25;;;11.64;100.00
24666;BME280;29726;53.532;-1.478;2022-12-29T06:07:03;97755.94;;;11.63;100.00
24666;BME280;29726;53.532;-1.478;2022-12-29T06:09:29;97760.75;;;11.63;100.00
24666;BME280;29726;53.532;-1.478;2022-12-29T06:11:54;97764.84;;;11.62;100.00
24666;BME280;29726;53.532;-1.478;2022-12-29T06:14:19;97775.28;;;11.62;100.00
24666;BME280;29726;53.532;-1.478;2022-12-29T06:16:45;97777.31;;;11.61;100.00
24666;BME280;29726;53.532;-1.478;2022-12-29T06:19:10;97778.59;;;11.60;100.00
24666;BME280;29726;53.532;-1.478;2022-12-29T06:21:36;97773.22;;;11.62;100.00
24666;BME280;29726;53.532;-1.478;2022-12-29T06:24:03;97781.59;;;11.62;100.00
24666;BME280;29726;53.532;-1.478;2022-12-29T06:26:29;97787.41;;;11.64;100.00
24666;BME280;29726;53.532;-1.478;2022-12-29T06:28:54;97789.44;;;11.63;100.00
24666;BME280;29726;53.532;-1.478;2022-12-29T06:31:20;97792.56;;;11.60;100.00
24666;BME280;29726;53.532;-1.478;2022-12-29T06:33:45;97793.09;;;11.58;100.00
24666;BME280;29726;53.532;-1.478;2022-12-29T06:36:11;97795.44;;;11.54;100.00
24666;BME280;29726;53.532;-1.478;2022-12-29T06:38:36;97799.25;;;11.57;100.00
24666;BME280;29726;53.532;-1.478;2022-12-29T06:41:02;97814.72;;;11.58;100.00
24666;BME280;29726;53.532;-1.478;2022-12-29T06:43:27;97806.13;;;11.56;100.00
24666;BME280;29726;53.532;-1.478;2022-12-29T06:45:53;97808.03;;;11.61;100.00
24666;BME280;29726;53.532;-1.478;2022-12-29T06:48:18;97817.06;;;11.54;100.00
24666;BME280;29726;53.532;-1.478;2022-12-29T06:50:43;97813.94;;;11.57;100.00
24666;BME280;29726;53.532;-1.478;2022-12-29T06:53:09;97820.81;;;11.57;100.00
24666;BME280;29726;53.532;-1.478;2022-12-29T06:55:34;97834.47;;;11.60;100.00
24666;BME280;29726;53.532;-1.478;2022-12-29T06:57:59;97832.53;;;11.55;100.00
24666;BME280;29726;53.532;-1.478;2022-12-29T07:00:26;97829.09;;;11.49;100.00
24666;BME280;29726;53.532;-1.478;2022-12-29T07:02:52;97836.19;;;11.50;100.00
24666;BME280;29726;53.532;-1.478;2022-12-29T07:05:19;97853.38;;;11.54;100.00
24666;BME280;29726;53.532;-1.478;2022-12-29T07:07:44;97847.00;;;11.53;100.00
24666;BME280;29726;53.532;-1.478;2022-12-29T07:10:10;97837.13;;;11.52;100.00
24666;BME280;29726;53.532;-1.478;2022-12-29T07:12:36;97832.41;;;11.48;100.00
24666;BME280;29726;53.532;-1.478;2022-12-29T07:15:01;97841.09;;;11.44;100.00
24666;BME280;29726;53.532;-1.478;2022-12-29T07:17:27;97852.94;;;11.50;100.00
24666;BME280;29726;53.532;-1.478;2022-12-29T07:19:52;97837.78;;;11.46;100.00
24666;BME280;29726;53.532;-1.478;2022-12-29T07:22:17;97845.75;;;11.42;100.00
24666;BME280;29726;53.532;-1.478;2022-12-29T07:24:43;97878.50;;;11.54;100.00
24666;BME280;29726;53.532;-1.478;2022-12-29T07:27:08;97887.63;;;11.54;100.00
24666;BME280;29726;53.532;-1.478;2022-12-29T07:29:36;97867.53;;;11.43;100.00
24666;BME280;29726;53.532;-1.478;2022-12-29T07:32:02;97885.91;;;11.52;100.00
24666;BME280;29726;53.532;-1.478;2022-12-29T07:34:27;97892.06;;;11.50;100.00
24666;BME280;29726;53.532;-1.478;2022-12-29T07:36:52;97882.47;;;11.46;100.00
24666;BME280;29726;53.532;-1.478;2022-12-29T07:39:18;97888.59;;;11.44;100.00
24666;BME280;29726;53.532;-1.478;2022-12-29T07:41:43;97898.47;;;11.45;100.00
24666;BME280;29726;53.532;-1.478;2022-12-29T07:44:09;97914.63;;;11.52;100.00
24666;BME280;29726;53.532;-1.478;2022-12-29T07:46:34;97897.81;;;11.39;100.00
24666;BME280;29726;53.532;-1.478;2022-12-29T07:49:00;97919.00;;;11.48;100.00
24666;BME280;29726;53.532;-1.478;2022-12-29T07:51:25;97912.00;;;11.41;100.00
24666;BME280;29726;53.532;-1.478;2022-12-29T07:53:50;97915.69;;;11.49;100.00
24666;BME280;29726;53.532;-1.478;2022-12-29T07:56:16;97934.91;;;11.52;100.00
24666;BME280;29726;53.532;-1.478;2022-12-29T07:58:41;97938.88;;;11.44;100.00
24666;BME280;29726;53.532;-1.478;2022-12-29T08:01:07;97945.22;;;11.45;100.00
24666;BME280;29726;53.532;-1.478;2022-12-29T08:03:32;97930.28;;;11.42;100.00
24666;BME280;29726;53.532;-1.478;2022-12-29T08:05:57;97950.25;;;11.46;100.00
24666;BME280;29726;53.532;-1.478;2022-12-29T08:08:23;97953.03;;;11.46;100.00
24666;BME280;29726;53.532;-1.478;2022-12-29T08:10:48;97971.56;;;11.49;100.00
24666;BME280;29726;53.532;-1.478;2022-12-29T08:13:14;97977.88;;;11.50;100.00
24666;BME280;29726;53.532;-1.478;2022-12-29T08:15:39;97964.56;;;11.43;100.00
24666;BME280;29726;53.532;-1.478;2022-12-29T08:18:04;97953.47;;;11.37;100.00
24666;BME280;29726;53.532;-1.478;2022-12-29T08:20:31;97985.53;;;11.49;100.00
24666;BME280;29726;53.532;-1.478;2022-12-29T08:22:57;97980.47;;;11.48;100.00
24666;BME280;29726;53.532;-1.478;2022-12-29T08:25:22;97978.75;;;11.45;100.00
24666;BME280;29726;53.532;-1.478;2022-12-29T08:27:47;97983.56;;;11.44;100.00
24666;BME280;29726;53.532;-1.478;2022-12-29T08:30:13;98003.53;;;11.48;100.00
24666;BME280;29726;53.532;-1.478;2022-12-29T08:32:38;98006.56;;;11.50;100.00
24666;BME280;29726;53.532;-1.478;2022-12-29T08:35:04;97996.78;;;11.44;100.00
24666;BME280;29726;53.532;-1.478;2022-12-29T08:37:29;98011.91;;;11.48;100.00
24666;BME280;29726;53.532;-1.478;2022-12-29T08:39:55;98009.75;;;11.41;100.00
24666;BME280;29726;53.532;-1.478;2022-12-29T08:42:20;98024.16;;;11.45;100.00
24666;BME280;29726;53.532;-1.478;2022-12-29T08:44:45;98050.28;;;11.48;100.00
24666;BME280;29726;53.532;-1.478;2022-12-29T08:47:11;98023.59;;;11.34;100.00
24666;BME280;29726;53.532;-1.478;2022-12-29T08:49:37;98028.13;;;11.37;100.00
24666;BME280;29726;53.532;-1.478;2022-12-29T08:52:03;98049.50;;;11.34;100.00
24666;BME280;29726;53.532;-1.478;2022-12-29T08:54:29;98067.47;;;11.39;100.00
24666;BME280;29726;53.532;-1.478;2022-12-29T08:56:54;98057.88;;;11.34;100.00
24666;BME280;29726;53.532;-1.478;2022-12-29T08:59:19;98075.50;;;11.42;100.00
24666;BME280;29726;53.532;-1.478;2022-12-29T09:01:45;98074.56;;;11.40;100.00
24666;BME280;29726;53.532;-1.478;2022-12-29T09:04:10;98085.41;;;11.43;100.00
24666;BME280;29726;53.532;-1.478;2022-12-29T09:06:35;98087.31;;;11.35;100.00
24666;BME280;29726;53.532;-1.478;2022-12-29T09:09:01;98074.94;;;11.31;100.00
24666;BME280;29726;53.532;-1.478;2022-12-29T09:11:26;98079.56;;;11.28;100.00
24666;BME280;29726;53.532;-1.478;2022-12-29T09:13:52;98087.31;;;11.35;100.00
24666;BME280;29726;53.532;-1.478;2022-12-29T09:16:20;98080.50;;;11.31;100.00
24666;BME280;29726;53.532;-1.478;2022-12-29T09:18:46;98086.53;;;11.35;100.00
24666;BME280;29726;53.532;-1.478;2022-12-29T09:21:12;98079.16;;;11.37;100.00
24666;BME280;29726;53.532;-1.478;2022-12-29T09:23:38;98065.59;;;11.28;100.00
24666;BME280;29726;53.532;-1.478;2022-12-29T09:26:04;98088.03;;;11.36;100.00
24666;BME280;29726;53.532;-1.478;2022-12-29T09:28:29;98084.75;;;11.37;100.00
24666;BME280;29726;53.532;-1.478;2022-12-29T09:30:56;98096.91;;;11.40;100.00
24666;BME280;29726;53.532;-1.478;2022-12-29T09:33:21;98097.94;;;11.37;100.00
24666;BME280;29726;53.532;-1.478;2022-12-29T09:35:56;98098.19;;;11.39;100.00
24666;BME280;29726;53.532;-1.478;2022-12-29T09:38:23;98081.81;;;11.30;100.00
24666;BME280;29726;53.532;-1.478;2022-12-29T09:40:59;98097.13;;;11.42;100.00
24666;BME280;29726;53.532;-1.478;2022-12-29T09:46:27;98105.72;;;11.44;100.00
24666;BME280;29726;53.532;-1.478;2022-12-29T09:49:39;98098.47;;;11.35;100.00
24666;BME280;29726;53.532;-1.478;2022-12-29T09:52:24;98097.41;;;11.38;100.00
24666;BME280;29726;53.532;-1.478;2022-12-29T09:55:10;98113.69;;;11.52;100.00
24666;BME280;29726;53.532;-1.478;2022-12-29T09:57:40;98119.50;;;11.54;100.00
24666;BME280;29726;53.532;-1.478;2022-12-29T10:00:19;98117.94;;;11.59;100.00
24666;BME280;29726;53.532;-1.478;2022-12-29T10:02:58;98122.69;;;11.64;100.00
24666;BME280;29726;53.532;-1.478;2022-12-29T10:19:42;98116.63;;;11.91;100.00
24666;BME280;29726;53.532;-1.478;2022-12-29T10:24:44;98116.44;;;12.02;100.00
24666;BME280;29726;53.532;-1.478;2022-12-29T10:27:13;98108.47;;;12.06;100.00
24666;BME280;29726;53.532;-1.478;2022-12-29T10:29:49;98118.50;;;12.15;100.00
24666;BME280;29726;53.532;-1.478;2022-12-29T10:35:23;98106.03;;;12.29;100.00
24666;BME280;29726;53.532;-1.478;2022-12-29T10:38:26;98113.56;;;12.34;100.00
24666;BME280;29726;53.532;-1.478;2022-12-29T10:40:58;98105.28;;;12.41;100.00
24666;BME280;29726;53.532;-1.478;2022-12-29T10:43:28;98107.09;;;12.39;100.00
24666;BME280;29726;53.532;-1.478;2022-12-29T10:46:08;98124.22;;;12.48;100.00
24666;BME280;29726;53.532;-1.478;2022-12-29T10:48:35;98129.94;;;12.56;100.00
24666;BME280;29726;53.532;-1.478;2022-12-29T10:51:04;98136.16;;;12.62;100.00
24666;BME280;29726;53.532;-1.478;2022-12-29T10:53:40;98131.88;;;12.61;100.00
24666;BME280;29726;53.532;-1.478;2022-12-29T10:56:16;98142.31;;;12.73;100.00
24666;BME280;29726;53.532;-1.478;2022-12-29T10:58:48;98139.72;;;12.75;100.00
24666;BME280;29726;53.532;-1.478;2022-12-29T11:01:16;98153.41;;;12.79;100.00
24666;BME280;29726;53.532;-1.478;2022-12-29T11:03:52;98096.34;;;12.56;100.00
24666;BME280;29726;53.532;-1.478;2022-12-29T11:06:26;98161.03;;;12.91;100.00
24666;BME280;29726;53.532;-1.478;2022-12-29T11:08:56;98147.25;;;12.67;100.00
24666;BME280;29726;53.532;-1.478;2022-12-29T11:11:33;98182.47;;;12.89;100.00
24666;BME280;29726;53.532;-1.478;2022-12-29T11:16:32;98176.03;;;12.94;100.00
24666;BME280;29726;53.532;-1.478;2022-12-29T11:18:59;98161.16;;;12.99;100.00
24666;BME280;29726;53.532;-1.478;2022-12-29T11:21:36;98168.69;;;13.04;100.00
24666;BME280;29726;53.532;-1.478;2022-12-29T11:24:27;98159.75;;;13.05;100.00
24666;BME280;29726;53.532;-1.478;2022-12-29T11:27:14;98154.38;;;13.07;100.00
24666;BME280;29726;53.532;-1.478;2022-12-29T11:29:42;98163.59;;;13.15;100.00
24666;BME280;29726;53.532;-1.478;2022-12-29T11:32:25;98159.94;;;13.20;100.00
24666;BME280;29726;53.532;-1.478;2022-12-29T11:34:50;98164.78;;;13.20;100.00
24666;BME280;29726;53.532;-1.478;2022-12-29T11:37:18;98157.47;;;13.17;100.00
24666;BME280;29726;53.532;-1.478;2022-12-29T11:39:55;98168.63;;;13.29;100.00
24666;BME280;29726;53.532;-1.478;2022-12-29T11:42:40;98166.03;;;13.31;100.00
24666;BME280;29726;53.532;-1.478;2022-12-29T11:45:15;98168.19;;;13.38;100.00
24666;BME280;29726;53.532;-1.478;2022-12-29T11:47:52;98180.50;;;13.35;100.00
24666;BME280;29726;53.532;-1.478;2022-12-29T11:50:22;98192.22;;;13.47;100.00
24666;BME280;29726;53.532;-1.478;2022-12-29T11:52:50;98185.84;;;13.46;100.00
24666;BME280;29726;53.532;-1.478;2022-12-29T11:55:25;98171.50;;;13.50;100.00
24666;BME280;29726;53.532;-1.478;2022-12-29T11:57:54;98181.84;;;13.55;100.00
24666;BME280;29726;53.532;-1.478;2022-12-29T12:00:23;98172.44;;;13.52;100.00
24666;BME280;29726;53.532;-1.478;2022-12-29T12:07:57;98193.97;;;13.70;100.00
24666;BME280;29726;53.532;-1.478;2022-12-29T12:10:32;98208.41;;;13.74;100.00
24666;BME280;29726;53.532;-1.478;2022-12-29T12:21:13;98200.28;;;13.84;100.00
24666;BME280;29726;53.532;-1.478;2022-12-29T12:24:15;98200.16;;;13.89;100.00
24666;BME280;29726;53.532;-1.478;2022-12-29T12:29:36;98229.38;;;13.94;100.00
24666;BME280;29726;53.532;-1.478;2022-12-29T12:32:33;98233.13;;;13.96;100.00
24666;BME280;29726;53.532;-1.478;2022-12-29T12:35:03;98229.00;;;13.97;100.00
24666;BME280;29726;53.532;-1.478;2022-12-29T12:50:45;98235.59;;;14.00;100.00
24666;BME280;29726;53.532;-1.478;2022-12-29T12:58:52;98252.50;;;14.07;100.00
24666;BME280;29726;53.532;-1.478;2022-12-29T13:04:16;98255.53;;;14.09;100.00
24666;BME280;29726;53.532;-1.478;2022-12-29T13:07:04;98274.59;;;14.11;100.00
24666;BME280;29726;53.532;-1.478;2022-12-29T13:15:33;98292.94;;;14.12;100.00
24666;BME280;29726;53.532;-1.478;2022-12-29T13:24:01;98385.47;;;13.52;100.00
24666;BME280;29726;53.532;-1.478;2022-12-29T13:26:35;98359.16;;;13.55;100.00
24666;BME280;29726;53.532;-1.478;2022-12-29T13:29:33;98325.53;;;13.55;100.00
24666;BME280;29726;53.532;-1.478;2022-12-29T13:38:05;98289.59;;;13.67;100.00
24666;BME280;29726;53.532;-1.478;2022-12-29T13:40:32;98291.97;;;13.76;100.00
24666;BME280;29726;53.532;-1.478;2022-12-29T13:43:00;98243.63;;;13.49;100.00
24666;BME280;29726;53.532;-1.478;2022-12-29T13:45:29;98280.41;;;13.79;100.00
24666;BME280;29726;53.532;-1.478;2022-12-29T13:50:26;98293.22;;;13.88;100.00
24666;BME280;29726;53.532;-1.478;2022-12-29T13:55:32;98288.03;;;13.92;100.00
24666;BME280;29726;53.532;-1.478;2022-12-29T14:01:00;98278.88;;;13.91;100.00
24666;BME280;29726;53.532;-1.478;2022-12-29T14:03:41;98294.81;;;13.96;100.00
24666;BME280;29726;53.532;-1.478;2022-12-29T14:08:52;98297.53;;;13.89;100.00
24666;BME280;29726;53.532;-1.478;2022-12-29T14:11:21;98305.84;;;13.94;100.00
24666;BME280;29726;53.532;-1.478;2022-12-29T14:13:48;98311.88;;;13.98;100.00
24666;BME280;29726;53.532;-1.478;2022-12-29T14:16:34;98302.81;;;13.92;100.00
24666;BME280;29726;53.532;-1.478;2022-12-29T14:19:14;98320.06;;;13.96;100.00
24666;BME280;29726;53.532;-1.478;2022-12-29T14:21:50;98315.75;;;13.95;100.00
24666;BME280;29726;53.532;-1.478;2022-12-29T14:24:48;98316.19;;;13.99;100.00
24666;BME280;29726;53.532;-1.478;2022-12-29T14:29:47;98304.22;;;13.99;100.00
24666;BME280;29726;53.532;-1.478;2022-12-29T14:35:00;98301.94;;;13.97;100.00
24666;BME280;29726;53.532;-1.478;2022-12-29T14:37:45;98298.84;;;13.88;100.00
24666;BME280;29726;53.532;-1.478;2022-12-29T14:40:25;98307.13;;;13.93;100.00
24666;BME280;29726;53.532;-1.478;2022-12-29T14:42:53;98310.81;;;13.88;100.00
24666;BME280;29726;53.532;-1.478;2022-12-29T14:47:49;98307.16;;;13.80;100.00
24666;BME280;29726;53.532;-1.478;2022-12-29T14:52:57;98333.25;;;13.88;100.00
24666;BME280;29726;53.532;-1.478;2022-12-29T14:58:00;98335.53;;;13.77;100.00
24666;BME280;29726;53.532;-1.478;2022-12-29T15:00:31;98338.13;;;13.75;100.00
24666;BME280;29726;53.532;-1.478;2022-12-29T15:03:06;98352.78;;;13.81;100.00
24666;BME280;29726;53.532;-1.478;2022-12-29T15:05:55;98347.72;;;13.79;100.00
24666;BME280;29726;53.532;-1.478;2022-12-29T15:08:27;98352.47;;;13.71;100.00
24666;BME280;29726;53.532;-1.478;2022-12-29T15:11:01;98369.94;;;13.77;100.00
24666;BME280;29726;53.532;-1.478;2022-12-29T15:13:40;98371.88;;;13.69;100.00